Airfield :
LOGIN :

Register | Disclaimer

   EN    FR    IT 

 










Legend :    VFR   Marginal VFR   IFR   Intensive IFR   Very Intensive IFR
Visi :
Ceiling :
>= 8 km
>= 3000ft
5 to 8 km
1000 to 3000 ft
1500m to 5 km
500 to 1000 ft
800 to 1500m
200 to 500 ft
< 800m
< 200 ft
Symbols :   Thunderstorms  Fog  Heavy snow  Heavy precipitations  Wind > 20 kt
SIGMETs :     Misc.  Thunderstorms  Icing  Turbulence  Mountain Waves  Volcanic Ashes







- Airport Elevation : 364 ft
- Download approach charts


LFAQ - Albert Bray

CURRENT METAR :
  • 240730Z AUTO 20006KT 9999 OVC003 14/14 Q1022 TEMPO 2000 DZRA

EXPIRED METARs :
  • 240700Z AUTO 20007KT 3500 -DZ BR OVC002 14/14 Q1021 TEMPO 2000 DZRA
  • 240630Z AUTO 20007KT 4000 -DZ BR OVC003 14/14 Q1021 TEMPO 2000 DZRA
  • 240600Z AUTO 20007KT 3900 -DZ BR OVC003 14/14 Q1021 TEMPO 2000 DZRA
  • 240530Z AUTO 20009KT 4600 BR OVC003 14/14 Q1021 TEMPO 2000 DZRA
  • 240500Z AUTO 20008KT 5000 BR OVC004 14/14 Q1021
  • 240430Z AUTO 21009KT 9999 OVC004 14/14 Q1021

TAF TAF LFAQ
Valid from the 24 at 06:00 until the 24 at 15:00 UTC


240500Z 2406/2415 22010KT 9999 OVC006
TEMPO 2406/2412 2000 DZRA OVC002
TEMPO 2412/2415 BKN015
No reported NOTAMs for that airfield.



MET'MAP, your aeronautical weather chart ! - Copyright ORBIFLY December 2007 - Disclaimer

ORBIFLY MET'MAP TEAM :

Programming & Development : Alexandra Zaïnal
Concept & Development : Baudouin d'Aumeries
Co-Development & Prog : Marc-Olivier Méhu
Technical & hardware support : Manuel Goepfert

Contact : metmap@orbifly.com




SOURCES & CREDITS :

   NOAA